Time;durP1;ratioP1;P1;durP2;ratioP2;P2;SDS_P1;SDS_P2;PMS_P1;PMS_P2;Temp;Humidity;BMP_temperature;BMP_pressure;BME280_temperature;BME280_humidity;BME280_pressure;Samples;Min_cycle;Max_cycle;Signal;HPM_P1;HPM_P2
2023/05/22 00:00:43;;;;;;;40.85;31.30;;;13.20;88.60;;;;;;4879670;29;20032;-84
2023/05/22 00:03:09;;;;;;;43.33;32.88;;;13.20;88.60;;;;;;4878002;29;20120;-84
2023/05/22 00:05:37;;;;;;;45.42;35.63;;;13.20;88.70;;;;;;4877089;29;20109;-84
2023/05/22 00:08:05;;;;;;;51.75;37.35;;;13.10;88.70;;;;;;4894538;29;20492;-84
2023/05/22 00:10:30;;;;;;;51.72;38.10;;;13.10;88.80;;;;;;4873959;29;20056;-84
2023/05/22 00:12:56;;;;;;;47.17;37.47;;;13.10;88.90;;;;;;4875800;29;20037;-84
2023/05/22 00:15:22;;;;;;;44.08;36.17;;;13.10;89.10;;;;;;4882737;29;20024;-84
2023/05/22 00:17:47;;;;;;;49.20;38.90;;;13.10;89.10;;;;;;4882077;29;20058;-86
2023/05/22 00:20:13;;;;;;;55.47;40.63;;;13.10;88.90;;;;;;4885232;29;20096;-86
2023/05/22 00:22:39;;;;;;;53.53;39.58;;;13.10;88.90;;;;;;4880889;29;20084;-87
2023/05/22 00:25:06;;;;;;;52.38;39.63;;;13.10;88.90;;;;;;4882677;29;20036;-85
2023/05/22 00:27:33;;;;;;;51.13;38.88;;;13.10;89.00;;;;;;4896251;29;20041;-84
2023/05/22 00:29:59;;;;;;;46.33;38.50;;;13.20;88.90;;;;;;4876724;29;20036;-86
2023/05/22 00:32:25;;;;;;;60.35;40.67;;;13.20;89.00;;;;;;4875895;29;20033;-86
2023/05/22 00:34:51;;;;;;;55.20;41.00;;;13.20;89.00;;;;;;4893489;29;20109;-85
2023/05/22 00:37:20;;;;;;;53.97;40.28;;;13.10;89.10;;;;;;4878313;29;20049;-86
2023/05/22 00:39:46;;;;;;;56.20;41.53;;;13.20;89.10;;;;;;4890281;29;20735;-85
2023/05/22 00:42:12;;;;;;;57.67;40.88;;;13.10;89.00;;;;;;4883931;29;20067;-85
2023/05/22 00:44:37;;;;;;;57.63;41.42;;;13.20;89.00;;;;;;4899048;29;20074;-86
2023/05/22 00:47:03;;;;;;;60.53;40.65;;;13.20;89.00;;;;;;4881808;29;20088;-86
2023/05/22 00:49:29;;;;;;;53.50;43.10;;;13.10;89.20;;;;;;4881934;29;20043;-86
2023/05/22 00:51:55;;;;;;;59.00;45.05;;;13.20;89.20;;;;;;4878317;29;20032;-85
2023/05/22 00:54:21;;;;;;;61.40;41.85;;;13.20;89.10;;;;;;4879839;29;20123;-86
2023/05/22 00:56:48;;;;;;;54.30;44.78;;;13.20;89.10;;;;;;4878505;29;20036;-86
2023/05/22 00:59:14;;;;;;;62.28;45.15;;;13.20;89.20;;;;;;4882034;29;20040;-88
2023/05/22 01:01:41;;;;;;;68.03;47.58;;;13.10;89.00;;;;;;4895321;29;20048;-87
2023/05/22 01:04:10;;;;;;;61.70;44.85;;;13.20;89.10;;;;;;4884126;29;20063;-84
2023/05/22 01:06:36;;;;;;;65.32;47.90;;;13.20;89.20;;;;;;4878965;29;20036;-86
2023/05/22 01:09:02;;;;;;;66.68;46.85;;;13.10;89.20;;;;;;4877157;29;20462;-87
2023/05/22 01:11:39;;;;;;;64.25;46.65;;;13.20;89.20;;;;;;4877977;29;20149;-86
2023/05/22 01:14:17;;;;;;;64.57;46.58;;;13.20;89.10;;;;;;4876544;29;20028;-84
2023/05/22 01:17:12;;;;;;;64.43;45.05;;;13.20;89.10;;;;;;4879039;29;20457;-85
2023/05/22 01:19:49;;;;;;;63.55;44.75;;;13.10;89.30;;;;;;4903311;29;20029;-85
2023/05/22 01:22:59;;;;;;;59.03;44.60;;;13.20;89.20;;;;;;4906420;29;20075;-85
2023/05/22 01:26:15;;;;;;;63.85;45.22;;;13.20;89.30;;;;;;4869411;29;20037;-85
2023/05/22 01:28:46;;;;;;;67.28;44.72;;;13.20;89.30;;;;;;4837670;29;20507;-84
2023/05/22 01:31:16;;;;;;;65.40;46.13;;;13.30;89.30;;;;;;4839570;29;20038;-84
2023/05/22 01:33:47;;;;;;;58.70;42.15;;;13.30;89.20;;;;;;4866644;29;20084;-86
2023/05/22 01:36:21;;;;;;;50.92;41.38;;;13.30;89.20;;;;;;4879289;29;20042;-85
2023/05/22 01:38:47;;;;;;;67.57;42.30;;;13.30;89.20;;;;;;4891800;29;20041;-85
2023/05/22 01:41:13;;;;;;;63.13;43.85;;;13.30;89.20;;;;;;4876756;29;20300;-87
2023/05/22 01:43:40;;;;;;;54.25;41.17;;;13.30;89.20;;;;;;4876115;29;20473;-86
2023/05/22 01:46:05;;;;;;;59.83;41.67;;;13.30;89.20;;;;;;4874045;29;20529;-85
2023/05/22 01:48:32;;;;;;;62.67;43.80;;;13.30;89.20;;;;;;4892920;29;20044;-85
2023/05/22 01:51:19;;;;;;;61.95;43.67;;;13.30;89.20;;;;;;4896508;29;20556;-85
2023/05/22 01:53:56;;;;;;;59.80;43.20;;;13.30;89.20;;;;;;4885803;29;20024;-85
2023/05/22 01:56:30;;;;;;;61.45;44.60;;;13.30;89.20;;;;;;4876799;29;20040;-84
2023/05/22 01:59:06;;;;;;;61.67;42.45;;;13.40;89.20;;;;;;4890446;29;20035;-85
2023/05/22 02:01:36;;;;;;;63.05;41.65;;;13.40;89.20;;;;;;4891560;29;20078;-87
2023/05/22 02:04:03;;;;;;;60.08;42.08;;;13.30;89.30;;;;;;4877268;29;20055;-85
2023/05/22 02:06:32;;;;;;;61.15;41.00;;;13.30;89.50;;;;;;4894018;29;20036;-86
2023/05/22 02:09:00;;;;;;;60.70;42.22;;;13.30;89.30;;;;;;4888570;29;20032;-86
2023/05/22 02:11:28;;;;;;;63.28;42.10;;;13.30;89.30;;;;;;4871103;29;20044;-85
2023/05/22 02:13:55;;;;;;;61.45;40.20;;;13.30;89.30;;;;;;4879245;29;20033;-85
2023/05/22 02:16:21;;;;;;;60.70;39.40;;;13.30;89.50;;;;;;4893167;29;20029;-85
2023/05/22 02:18:47;;;;;;;60.22;40.30;;;13.20;89.70;;;;;;4879507;29;20105;-85
2023/05/22 02:21:13;;;;;;;57.47;37.92;;;13.20;89.80;;;;;;4878070;29;20529;-85
2023/05/22 02:23:39;;;;;;;64.70;39.50;;;13.20;89.80;;;;;;4904553;29;20036;-84
2023/05/22 02:26:05;;;;;;;50.83;37.35;;;13.20;89.80;;;;;;4900754;29;20140;-85
2023/05/22 02:28:31;;;;;;;63.75;39.50;;;13.20;89.90;;;;;;4887730;29;20060;-85
2023/05/22 02:30:57;;;;;;;59.10;38.72;;;13.20;89.80;;;;;;4881645;29;20102;-84
2023/05/22 02:33:23;;;;;;;59.08;37.15;;;13.20;89.90;;;;;;4884143;29;20427;-87
2023/05/22 02:35:48;;;;;;;64.05;38.92;;;13.20;90.00;;;;;;4880350;29;20036;-85
2023/05/22 02:38:14;;;;;;;59.70;37.40;;;13.20;90.00;;;;;;4900499;29;20434;-85
2023/05/22 02:40:40;;;;;;;61.92;38.65;;;13.20;90.00;;;;;;4886168;29;20040;-86
2023/05/22 02:43:06;;;;;;;58.85;37.83;;;13.30;90.10;;;;;;4882379;29;20045;-86
2023/05/22 02:45:31;;;;;;;67.82;38.78;;;13.20;90.10;;;;;;4887220;29;20111;-86
2023/05/22 02:48:00;;;;;;;61.60;38.50;;;13.20;90.10;;;;;;4884970;29;20037;-86
2023/05/22 02:50:25;;;;;;;60.97;40.10;;;13.20;90.20;;;;;;4885141;29;20119;-86
2023/05/22 02:52:51;;;;;;;62.33;40.25;;;13.10;90.10;;;;;;4883150;29;20123;-86
2023/05/22 02:55:17;;;;;;;57.28;37.90;;;13.20;90.30;;;;;;4894087;29;20430;-84
2023/05/22 02:57:43;;;;;;;62.97;38.83;;;13.20;90.20;;;;;;4883536;29;20402;-85
2023/05/22 03:00:10;;;;;;;65.47;40.70;;;13.20;90.20;;;;;;4881534;29;20024;-87
2023/05/22 03:02:37;;;;;;;60.28;40.72;;;13.10;90.10;;;;;;4884210;29;20051;-86
2023/05/22 03:05:06;;;;;;;59.35;38.97;;;13.10;90.30;;;;;;4895110;29;20059;-85
2023/05/22 03:07:33;;;;;;;66.05;40.22;;;13.20;90.20;;;;;;4884359;29;20036;-85
2023/05/22 03:10:00;;;;;;;63.75;40.85;;;13.10;90.30;;;;;;4889162;29;20056;-86
2023/05/22 03:12:26;;;;;;;60.85;38.75;;;13.10;90.30;;;;;;4902311;29;20039;-85
2023/05/22 03:14:52;;;;;;;64.72;37.65;;;13.10;90.50;;;;;;4879828;29;20061;-84
2023/05/22 03:17:17;;;;;;;70.80;39.05;;;13.10;90.40;;;;;;4884095;29;20058;-84
2023/05/22 03:19:43;;;;;;;62.90;39.15;;;13.10;90.40;;;;;;4900170;29;20037;-83
2023/05/22 03:22:09;;;;;;;66.82;39.33;;;13.20;90.40;;;;;;4884209;29;20470;-84
2023/05/22 03:24:35;;;;;;;69.78;40.10;;;13.20;90.20;;;;;;4884256;29;20173;-84
2023/05/22 03:27:01;;;;;;;64.43;37.22;;;13.20;90.30;;;;;;4878115;29;20041;-87
2023/05/22 03:29:26;;;;;;;65.18;37.05;;;13.20;90.20;;;;;;4883975;29;20039;-84
2023/05/22 03:31:53;;;;;;;61.38;38.55;;;13.20;90.00;;;;;;4906150;29;20059;-85
2023/05/22 03:34:21;;;;;;;59.88;36.60;;;13.20;90.10;;;;;;4893516;29;20029;-86
2023/05/22 03:36:47;;;;;;;55.35;34.25;;;13.30;90.00;;;;;;4876217;29;20066;-86
2023/05/22 03:39:12;;;;;;;56.90;34.20;;;13.30;89.90;;;;;;4875631;29;20489;-85
2023/05/22 03:41:38;;;;;;;56.50;33.65;;;13.30;89.90;;;;;;4892894;29;20565;-85
2023/05/22 03:44:04;;;;;;;53.72;33.92;;;13.30;89.90;;;;;;4878428;29;20520;-86
2023/05/22 03:46:30;;;;;;;61.50;35.72;;;13.30;89.90;;;;;;4885014;29;20047;-86
2023/05/22 03:48:55;;;;;;;56.58;33.28;;;13.30;89.90;;;;;;4895984;29;20037;-85
2023/05/22 03:51:21;;;;;;;55.13;31.58;;;13.30;89.90;;;;;;4876144;29;20054;-86
2023/05/22 03:53:47;;;;;;;57.30;33.10;;;13.30;89.70;;;;;;4880266;29;20402;-86
2023/05/22 03:56:12;;;;;;;55.08;33.78;;;13.40;89.60;;;;;;4879677;29;20408;-87
2023/05/22 03:58:38;;;;;;;57.97;34.10;;;13.40;89.50;;;;;;4882170;29;20035;-86
2023/05/22 04:01:04;;;;;;;59.47;34.22;;;13.40;89.60;;;;;;4892562;29;20037;-87
2023/05/22 04:03:30;;;;;;;64.40;35.83;;;13.40;89.50;;;;;;4882088;29;21233;-85
2023/05/22 04:05:55;;;;;;;64.82;36.63;;;13.30;89.40;;;;;;4883951;29;20024;-85
2023/05/22 04:08:21;;;;;;;64.28;38.47;;;13.30;89.30;;;;;;4888325;29;20115;-85
2023/05/22 04:10:47;;;;;;;64.43;36.58;;;13.40;89.50;;;;;;4869844;29;20108;-86
2023/05/22 04:13:15;;;;;;;65.13;40.03;;;13.30;89.50;;;;;;4857675;29;20375;-86
2023/05/22 04:15:44;;;;;;;68.40;39.05;;;13.40;89.50;;;;;;4858069;29;20450;-85
2023/05/22 04:18:10;;;;;;;62.97;38.22;;;13.30;89.50;;;;;;4875657;29;20029;-87
2023/05/22 04:20:36;;;;;;;67.20;39.22;;;13.30;89.60;;;;;;4874759;29;20032;-85
2023/05/22 04:23:02;;;;;;;68.68;37.88;;;13.30;89.60;;;;;;4874315;29;20539;-87
2023/05/22 04:25:28;;;;;;;65.70;40.10;;;13.30;89.90;;;;;;4859884;29;20056;-86
2023/05/22 04:27:54;;;;;;;64.25;40.78;;;13.20;90.00;;;;;;4859732;29;20525;-86
2023/05/22 04:30:20;;;;;;;61.40;38.80;;;13.20;89.80;;;;;;4857795;29;20024;-87
2023/05/22 04:32:46;;;;;;;56.70;39.03;;;13.20;89.90;;;;;;4855907;29;20488;-88
2023/05/22 04:35:12;;;;;;;60.70;39.40;;;13.30;89.90;;;;;;4863007;29;20036;-86
2023/05/22 04:37:44;;;;;;;56.38;37.78;;;13.20;89.70;;;;;;4857560;29;20068;-88
2023/05/22 04:40:10;;;;;;;55.25;36.17;;;13.20;89.80;;;;;;4861861;29;20024;-86
2023/05/22 04:42:37;;;;;;;56.08;37.85;;;13.10;90.10;;;;;;4856575;29;20037;-86
2023/05/22 04:45:04;;;;;;;55.65;37.15;;;13.10;90.20;;;;;;4856626;29;20021;-86
2023/05/22 04:47:32;;;;;;;52.92;37.70;;;13.20;90.10;;;;;;4869061;29;20030;-86
2023/05/22 04:49:59;;;;;;;58.20;37.97;;;13.20;90.10;;;;;;4870483;29;20033;-86
2023/05/22 04:52:25;;;;;;;69.65;42.55;;;13.30;90.10;;;;;;4859867;29;20084;-86
2023/05/22 04:54:51;;;;;;;65.05;41.33;;;13.20;90.00;;;;;;4862800;29;20021;-88
2023/05/22 04:57:20;;;;;;;65.40;39.58;;;13.20;90.10;;;;;;4879096;29;20518;-86
2023/05/22 04:59:47;;;;;;;62.63;41.78;;;13.20;90.10;;;;;;4864642;29;20044;-85
2023/05/22 05:02:13;;;;;;;64.75;40.55;;;13.20;90.20;;;;;;4852813;29;20367;-86
2023/05/22 05:04:40;;;;;;;67.20;43.03;;;13.20;90.20;;;;;;4871710;29;20447;-86
2023/05/22 05:07:06;;;;;;;66.35;42.03;;;13.20;90.10;;;;;;4851478;29;20030;-86
2023/05/22 05:09:31;;;;;;;65.53;41.63;;;13.30;90.30;;;;;;4859849;29;20382;-86
2023/05/22 05:11:57;;;;;;;61.70;40.30;;;13.30;90.10;;;;;;4855929;29;20075;-87
2023/05/22 05:14:24;;;;;;;60.13;38.38;;;13.20;90.10;;;;;;4873720;29;20032;-87
2023/05/22 05:16:53;;;;;;;57.65;37.83;;;13.10;90.20;;;;;;4858069;29;20105;-86
2023/05/22 05:19:22;;;;;;;55.45;38.03;;;13.20;90.30;;;;;;4868481;29;20036;-87
2023/05/22 05:21:48;;;;;;;55.63;36.35;;;13.20;90.20;;;;;;4871160;29;20041;-85
2023/05/22 05:24:16;;;;;;;58.60;38.47;;;13.20;90.20;;;;;;4855766;29;20028;-86
2023/05/22 05:26:42;;;;;;;58.55;37.85;;;13.30;90.00;;;;;;4853763;29;20038;-85
2023/05/22 05:29:08;;;;;;;50.03;36.83;;;13.30;90.30;;;;;;4849104;29;20061;-84
2023/05/22 05:31:33;;;;;;;56.53;37.85;;;13.30;90.10;;;;;;4855939;29;20088;-83
2023/05/22 05:33:59;;;;;;;64.65;38.40;;;13.40;90.00;;;;;;4852279;29;20055;-84
2023/05/22 05:37:06;;;;;;;;;;;;;;;;;;;;;
2023/05/22 05:39:32;;;;;;;52.88;35.38;;;13.50;90.00;;;;;;4870741;29;20033;-86
2023/05/22 05:41:58;;;;;;;57.85;36.00;;;13.50;90.00;;;;;;4856696;29;20028;-85
2023/05/22 05:44:24;;;;;;;54.28;35.13;;;13.60;89.80;;;;;;4861320;29;20057;-87
2023/05/22 05:46:51;;;;;;;57.00;35.17;;;13.50;89.50;;;;;;4873268;29;20037;-87
2023/05/22 05:49:18;;;;;;;53.35;34.80;;;13.50;89.60;;;;;;4868948;29;20036;-87
2023/05/22 05:51:44;;;;;;;51.50;34.03;;;13.50;89.60;;;;;;4851558;29;20033;-86
2023/05/22 05:54:10;;;;;;;49.80;34.88;;;13.50;89.50;;;;;;4856400;29;20031;-89
2023/05/22 05:56:36;;;;;;;47.33;34.03;;;13.60;89.60;;;;;;4852246;29;20033;-89
2023/05/22 05:59:02;;;;;;;47.25;34.03;;;13.50;89.40;;;;;;4852573;29;20533;-86
2023/05/22 06:01:31;;;;;;;47.78;33.13;;;13.50;89.30;;;;;;4868842;29;20056;-86
2023/05/22 06:04:01;;;;;;;48.63;34.22;;;13.50;89.50;;;;;;4855461;29;20097;-89
2023/05/22 06:06:29;;;;;;;52.03;34.33;;;13.40;89.60;;;;;;4851422;29;20493;-86
2023/05/22 06:08:55;;;;;;;58.78;36.15;;;13.50;89.80;;;;;;4871917;29;20105;-87
2023/05/22 06:11:22;;;;;;;56.70;35.47;;;13.50;89.60;;;;;;4862051;29;20048;-87
2023/05/22 06:13:47;;;;;;;54.28;36.97;;;13.60;89.70;;;;;;4859198;29;20033;-88
2023/05/22 06:16:13;;;;;;;55.97;34.95;;;13.70;89.50;;;;;;4860143;29;20037;-88
2023/05/22 06:18:39;;;;;;;52.85;35.78;;;13.80;89.30;;;;;;4855446;29;20124;-88
2023/05/22 06:21:05;;;;;;;51.05;35.78;;;13.70;88.90;;;;;;4852515;29;20478;-87
2023/05/22 06:23:31;;;;;;;53.53;36.95;;;13.70;89.00;;;;;;4867051;29;20064;-86
2023/05/22 06:25:57;;;;;;;52.95;35.67;;;13.80;88.80;;;;;;4859789;29;20030;-86
2023/05/22 06:28:23;;;;;;;58.65;36.50;;;13.90;88.80;;;;;;4864422;29;20646;-86
2023/05/22 06:30:49;;;;;;;52.63;35.22;;;13.80;88.60;;;;;;4853631;29;20017;-87
2023/05/22 06:33:15;;;;;;;53.53;36.65;;;13.80;88.70;;;;;;4852320;29;20215;-87
2023/05/22 06:35:41;;;;;;;51.65;36.88;;;13.80;89.00;;;;;;4854596;29;20467;-88
2023/05/22 06:38:06;;;;;;;56.67;37.80;;;13.90;88.60;;;;;;4859050;29;20048;-87
2023/05/22 06:40:32;;;;;;;56.17;38.28;;;13.90;88.50;;;;;;4867732;29;20040;-87
2023/05/22 06:43:01;;;;;;;56.47;38.53;;;13.90;88.50;;;;;;4854137;29;20132;-87
2023/05/22 06:45:26;;;;;;;58.22;37.13;;;13.90;88.60;;;;;;4856322;29;20028;-86
2023/05/22 06:47:53;;;;;;;52.45;37.45;;;13.80;88.40;;;;;;4875118;29;20033;-89
2023/05/22 06:50:19;;;;;;;59.53;38.15;;;13.80;88.50;;;;;;4867646;29;20025;-86
2023/05/22 06:52:45;;;;;;;51.88;36.67;;;13.80;88.80;;;;;;4863023;29;20143;-86
2023/05/22 06:55:11;;;;;;;55.55;38.97;;;13.90;88.80;;;;;;4852842;29;20145;-87
2023/05/22 06:57:37;;;;;;;63.15;37.25;;;13.90;88.90;;;;;;4857937;29;20044;-88
2023/05/22 07:00:07;;;;;;;58.63;37.35;;;13.90;88.60;;;;;;4853540;29;20040;-86
2023/05/22 07:02:33;;;;;;;60.00;39.00;;;13.90;88.60;;;;;;4872754;29;20074;-88
2023/05/22 07:04:58;;;;;;;62.85;39.97;;;13.90;88.60;;;;;;4860832;29;20455;-88
2023/05/22 07:07:24;;;;;;;59.83;40.55;;;13.90;88.60;;;;;;4858207;29;20355;-87
2023/05/22 07:09:50;;;;;;;66.57;42.42;;;14.10;88.70;;;;;;4854808;29;20021;-86
2023/05/22 07:12:16;;;;;;;65.32;42.75;;;14.20;88.50;;;;;;4876159;29;20603;-85
2023/05/22 07:14:41;;;;;;;67.50;41.90;;;14.20;88.20;;;;;;4880694;29;20132;-86
2023/05/22 07:17:07;;;;;;;57.70;41.05;;;14.30;87.90;;;;;;4882184;29;20032;-87
2023/05/22 07:19:34;;;;;;;60.55;40.60;;;14.30;87.60;;;;;;4900713;29;20151;-87
2023/05/22 07:22:00;;;;;;;61.30;40.85;;;14.20;87.60;;;;;;4894476;29;20075;-86
2023/05/22 07:24:26;;;;;;;63.03;42.28;;;14.20;87.80;;;;;;4874759;29;20029;-86
2023/05/22 07:26:51;;;;;;;65.20;43.13;;;14.40;87.80;;;;;;4884415;29;20040;-87
2023/05/22 07:29:17;;;;;;;70.72;43.13;;;14.30;87.40;;;;;;4881473;29;20131;-87
2023/05/22 07:31:43;;;;;;;69.68;45.00;;;14.40;87.30;;;;;;4879190;29;20039;-88
2023/05/22 07:34:09;;;;;;;75.65;47.70;;;14.50;87.40;;;;;;4880954;29;20147;-88
2023/05/22 07:36:35;;;;;;;68.90;50.35;;;14.60;87.30;;;;;;4895378;29;20073;-88
2023/05/22 07:39:04;;;;;;;66.97;49.67;;;14.60;87.00;;;;;;4879613;29;20060;-87
2023/05/22 07:41:31;;;;;;;73.93;49.97;;;14.60;86.70;;;;;;4892930;29;20365;-87
2023/05/22 07:43:57;;;;;;;71.00;48.60;;;14.70;86.90;;;;;;4876623;29;20036;-88
2023/05/22 07:46:23;;;;;;;68.05;47.78;;;14.90;86.30;;;;;;4878493;29;20031;-86
2023/05/22 07:48:48;;;;;;;62.90;46.85;;;14.80;85.70;;;;;;4882385;29;20024;-86
2023/05/22 07:51:15;;;;;;;67.38;46.85;;;14.90;85.80;;;;;;4894465;29;20144;-88
2023/05/22 07:53:41;;;;;;;66.50;45.90;;;15.00;85.80;;;;;;4884612;29;20047;-88
2023/05/22 07:56:07;;;;;;;70.60;45.17;;;15.10;85.10;;;;;;4884843;29;20044;-87
2023/05/22 07:58:33;;;;;;;61.40;43.53;;;15.10;84.90;;;;;;4893260;29;20394;-87
2023/05/22 08:01:00;;;;;;;65.68;43.45;;;15.10;85.00;;;;;;4881974;29;20115;-87
2023/05/22 08:03:26;;;;;;;59.70;43.53;;;15.20;84.90;;;;;;4891372;29;20046;-88
2023/05/22 08:05:52;;;;;;;61.22;44.00;;;15.20;84.40;;;;;;4881149;29;20032;-87
2023/05/22 08:08:18;;;;;;;61.08;40.55;;;15.20;84.30;;;;;;4883824;29;20103;-84
2023/05/22 08:10:43;;;;;;;54.15;38.08;;;15.20;84.50;;;;;;4884020;29;20041;-88
2023/05/22 08:13:11;;;;;;;53.55;40.17;;;15.40;84.50;;;;;;4886918;29;20032;-89
2023/05/22 08:15:36;;;;;;;48.20;34.05;;;15.50;84.20;;;;;;4886105;29;20319;-88
2023/05/22 08:18:02;;;;;;;43.72;30.48;;;15.60;83.60;;;;;;4876513;29;20033;-86
2023/05/22 08:20:28;;;;;;;44.17;27.52;;;15.60;82.70;;;;;;4875546;29;20532;-85
2023/05/22 08:22:54;;;;;;;46.25;27.15;;;15.60;82.50;;;;;;4879228;29;20037;-87
2023/05/22 08:25:20;;;;;;;42.55;26.45;;;15.70;82.70;;;;;;4893737;29;20026;-87
2023/05/22 08:27:45;;;;;;;45.78;28.38;;;15.80;82.70;;;;;;4918257;29;20028;-87
2023/05/22 08:30:11;;;;;;;42.83;27.27;;;15.90;82.50;;;;;;4894578;29;20185;-84
2023/05/22 08:32:37;;;;;;;38.13;25.25;;;15.90;82.40;;;;;;4907095;29;20060;-85
2023/05/22 08:35:03;;;;;;;44.80;25.48;;;16.10;82.50;;;;;;4896031;29;20021;-87
2023/05/22 08:37:29;;;;;;;38.95;24.50;;;16.10;81.70;;;;;;4896659;29;20186;-87
2023/05/22 08:39:55;;;;;;;38.53;22.92;;;16.10;82.10;;;;;;4909326;29;20457;-87
2023/05/22 08:42:21;;;;;;;40.03;22.80;;;16.10;81.80;;;;;;4876171;29;20529;-86
2023/05/22 08:44:47;;;;;;;42.67;23.05;;;16.20;81.90;;;;;;4878895;29;20036;-87
2023/05/22 08:47:14;;;;;;;35.75;21.42;;;16.30;81.20;;;;;;4873146;29;20461;-87
2023/05/22 08:49:40;;;;;;;35.63;20.92;;;16.30;81.20;;;;;;4881836;29;20032;-87
2023/05/22 08:52:33;;;;;;;32.35;20.83;;;16.20;81.30;;;;;;4874639;29;20029;-87
2023/05/22 08:55:03;;;;;;;34.63;21.02;;;16.20;81.50;;;;;;4876022;29;20464;-86
2023/05/22 08:57:31;;;;;;;40.78;18.50;;;16.10;81.60;;;;;;4879828;29;20452;-89
2023/05/22 08:59:57;;;;;;;31.65;19.67;;;16.30;81.40;;;;;;4879994;29;20056;-88
2023/05/22 09:02:23;;;;;;;33.65;19.83;;;16.40;81.20;;;;;;4880487;29;20067;-88
2023/05/22 09:04:48;;;;;;;42.47;19.10;;;16.40;80.70;;;;;;4888242;29;20039;-87
2023/05/22 09:07:14;;;;;;;38.30;19.73;;;16.30;80.60;;;;;;4882945;29;20028;-86
2023/05/22 09:09:40;;;;;;;30.83;19.02;;;16.10;80.80;;;;;;4885449;29;20742;-88
2023/05/22 09:12:08;;;;;;;34.72;19.20;;;16.10;81.20;;;;;;4874587;29;20712;-87
2023/05/22 09:14:39;;;;;;;36.17;18.83;;;16.10;81.10;;;;;;4897472;29;20017;-86
2023/05/22 09:17:05;;;;;;;37.92;18.92;;;16.10;81.00;;;;;;4877548;29;20044;-86
2023/05/22 09:19:30;;;;;;;34.20;19.50;;;16.10;81.20;;;;;;4911162;29;20064;-84
2023/05/22 09:22:04;;;;;;;32.08;17.98;;;16.20;81.60;;;;;;4913904;29;20131;-85
2023/05/22 09:24:30;;;;;;;31.75;17.15;;;16.20;81.00;;;;;;4893776;29;20025;-86
2023/05/22 09:26:55;;;;;;;37.13;17.73;;;16.20;81.10;;;;;;4888271;29;20035;-84
2023/05/22 09:29:21;;;;;;;35.90;17.75;;;16.50;81.10;;;;;;4885033;29;20388;-85
2023/05/22 09:31:47;;;;;;;36.10;17.80;;;16.60;79.90;;;;;;4886536;29;20032;-85
2023/05/22 09:34:13;;;;;;;32.58;16.63;;;16.60;80.00;;;;;;4871715;29;20076;-87
2023/05/22 09:36:40;;;;;;;34.00;16.92;;;16.60;80.30;;;;;;4879247;29;20033;-88
2023/05/22 09:39:06;;;;;;;30.85;16.17;;;16.70;79.90;;;;;;4871816;29;20032;-86
2023/05/22 09:41:37;;;;;;;33.67;15.88;;;16.60;79.50;;;;;;4875536;29;20068;-85
2023/05/22 09:44:11;;;;;;;35.28;15.18;;;16.90;79.80;;;;;;4875471;29;20025;-84
2023/05/22 09:46:38;;;;;;;;;;;16.80;79.00;;;;;;4875004;29;20036;-86
2023/05/22 09:49:04;;;;;;;30.85;16.67;;;16.90;78.50;;;;;;4877548;29;19979;-87
2023/05/22 09:51:32;;;;;;;40.40;17.65;;;16.80;78.70;;;;;;4872402;29;20131;-86
2023/05/22 09:54:02;;;;;;;33.35;17.45;;;16.90;78.90;;;;;;4873691;29;20052;-86
2023/05/22 09:56:30;;;;;;;32.28;17.08;;;16.90;78.80;;;;;;4875105;29;20132;-86
2023/05/22 09:58:57;;;;;;;34.50;17.75;;;16.90;79.00;;;;;;4879029;29;20041;-86
2023/05/22 10:01:25;;;;;;;36.28;18.35;;;16.90;79.40;;;;;;4878056;29;20118;-86
2023/05/22 10:03:54;;;;;;;37.00;18.20;;;16.90;78.90;;;;;;4877893;29;20103;-88
2023/05/22 10:06:21;;;;;;;34.42;18.67;;;16.80;78.80;;;;;;4878667;29;20032;-84
2023/05/22 10:08:53;;;;;;;43.35;18.58;;;16.80;78.70;;;;;;4875818;29;20079;-85
2023/05/22 10:11:20;;;;;;;40.50;19.33;;;16.80;79.10;;;;;;4875078;29;20053;-86
2023/05/22 10:13:46;;;;;;;36.00;16.52;;;16.80;79.20;;;;;;4882516;29;20033;-85
2023/05/22 10:16:15;;;;;;;36.63;16.70;;;16.70;78.90;;;;;;4898596;29;20055;-87
2023/05/22 10:18:44;;;;;;;36.85;17.60;;;16.90;79.10;;;;;;4878477;29;20032;-86
2023/05/22 10:21:11;;;;;;;37.00;17.70;;;16.90;78.90;;;;;;4890240;29;20047;-86
2023/05/22 10:23:38;;;;;;;37.35;19.42;;;17.00;79.30;;;;;;4877142;29;20054;-87
2023/05/22 10:26:04;;;;;;;39.30;19.27;;;16.90;78.80;;;;;;4902818;29;20036;-86
2023/05/22 10:28:39;;;;;;;33.03;19.55;;;16.80;78.80;;;;;;4883506;29;20064;-86
2023/05/22 10:31:20;;;;;;;41.40;19.98;;;16.70;79.20;;;;;;4894284;29;20443;-86
2023/05/22 10:33:53;;;;;;;41.78;20.10;;;16.80;79.10;;;;;;4890307;29;20481;-86
2023/05/22 10:36:56;;;;;;;37.70;20.75;;;16.90;78.50;;;;;;4877415;29;20394;-87
2023/05/22 10:39:39;;;;;;;36.15;19.45;;;17.00;79.10;;;;;;4897302;29;20057;-86
2023/05/22 10:42:04;;;;;;;42.90;18.45;;;17.00;78.50;;;;;;4885282;29;20048;-86
2023/05/22 10:44:32;;;;;;;36.38;19.67;;;17.10;78.40;;;;;;4886297;29;20043;-87
2023/05/22 10:47:10;;;;;;;38.50;19.20;;;17.10;78.30;;;;;;4903871;29;20032;-88
2023/05/22 10:49:36;;;;;;;35.95;19.30;;;17.10;78.30;;;;;;4892567;29;20036;-88
2023/05/22 10:52:02;;;;;;;40.45;19.90;;;17.20;78.50;;;;;;4887486;29;20462;-86
2023/05/22 10:54:38;;;;;;;40.10;19.38;;;17.10;77.80;;;;;;4878216;29;20025;-86
2023/05/22 10:57:16;;;;;;;39.38;19.42;;;17.20;78.40;;;;;;4892714;29;20064;-88
2023/05/22 11:00:08;;;;;;;36.20;19.33;;;17.20;77.90;;;;;;4877444;29;20540;-87
2023/05/22 11:02:40;;;;;;;47.50;19.88;;;17.10;78.60;;;;;;4896682;29;20036;-88
2023/05/22 11:05:18;;;;;;;45.08;19.48;;;17.00;78.70;;;;;;4875033;29;20136;-87
2023/05/22 11:07:44;;;;;;;38.33;18.98;;;17.10;79.00;;;;;;4901471;29;20036;-88
2023/05/22 11:10:10;;;;;;;32.70;18.75;;;17.20;78.60;;;;;;4889240;29;20023;-87
2023/05/22 11:12:36;;;;;;;45.55;19.98;;;17.40;78.70;;;;;;4895800;29;20075;-88
2023/05/22 11:15:07;;;;;;;38.75;19.42;;;17.40;78.10;;;;;;4888199;29;20017;-86
2023/05/22 11:17:49;;;;;;;39.42;18.95;;;17.20;78.30;;;;;;4901354;29;20100;-88
2023/05/22 11:20:21;;;;;;;36.78;19.42;;;17.40;78.40;;;;;;4901057;29;20083;-87
2023/05/22 11:22:59;;;;;;;36.15;19.45;;;17.30;77.90;;;;;;4887881;29;20039;-87
2023/05/22 11:25:26;;;;;;;37.05;20.25;;;17.30;78.40;;;;;;4882293;29;20024;-85
2023/05/22 11:27:53;;;;;;;39.60;22.23;;;17.30;78.80;;;;;;4901200;29;20028;-88
2023/05/22 11:30:19;;;;;;;44.70;21.13;;;17.30;78.00;;;;;;4881911;29;20119;-88
2023/05/22 11:32:46;;;;;;;45.45;21.38;;;17.20;78.30;;;;;;4883163;29;20037;-87
2023/05/22 11:35:14;;;;;;;37.13;20.88;;;17.10;78.70;;;;;;4876595;29;20025;-85
2023/05/22 11:37:41;;;;;;;41.53;21.10;;;17.10;78.80;;;;;;4882315;29;20397;-86
2023/05/22 11:40:07;;;;;;;38.85;20.52;;;17.20;79.20;;;;;;4882379;29;20032;-86
2023/05/22 11:42:34;;;;;;;46.53;21.90;;;17.40;78.30;;;;;;4876704;29;20068;-89
2023/05/22 11:45:00;;;;;;;46.63;21.38;;;17.40;77.70;;;;;;4897678;29;20029;-87
2023/05/22 11:47:27;;;;;;;45.22;21.15;;;17.60;77.50;;;;;;4900958;29;20127;-87
2023/05/22 11:49:53;;;;;;;43.42;21.38;;;17.90;76.80;;;;;;4880706;29;20059;-87
2023/05/22 11:52:19;;;;;;;40.70;20.45;;;17.70;76.60;;;;;;4882910;29;20033;-87
2023/05/22 11:54:46;;;;;;;41.40;20.70;;;17.80;76.10;;;;;;4898502;29;20631;-88
2023/05/22 11:57:12;;;;;;;41.33;21.23;;;17.70;76.40;;;;;;4896196;29;20064;-89
2023/05/22 11:59:38;;;;;;;37.65;19.83;;;17.90;76.50;;;;;;4890610;29;20047;-86
2023/05/22 12:02:06;;;;;;;38.45;19.42;;;18.00;75.70;;;;;;4886413;29;20183;-85
2023/05/22 12:04:32;;;;;;;41.53;19.40;;;18.10;75.70;;;;;;4896345;29;20100;-87
2023/05/22 12:06:58;;;;;;;41.38;19.30;;;17.90;75.00;;;;;;4891266;29;20033;-88
2023/05/22 12:09:26;;;;;;;40.72;19.55;;;18.00;75.00;;;;;;4881132;29;20024;-88
2023/05/22 12:11:56;;;;;;;38.05;18.83;;;18.30;75.50;;;;;;4903342;29;20044;-87
2023/05/22 12:14:27;;;;;;;34.35;18.98;;;18.60;74.60;;;;;;4892687;29;20111;-86
2023/05/22 12:16:53;;;;;;;39.60;18.38;;;18.80;73.10;;;;;;4878478;29;20045;-88
2023/05/22 12:19:20;;;;;;;39.65;17.38;;;18.90;72.80;;;;;;4886704;29;20045;-88
2023/05/22 12:21:49;;;;;;;32.63;17.10;;;19.10;72.80;;;;;;4880929;29;20043;-87
2023/05/22 12:24:15;;;;;;;37.35;17.02;;;18.70;73.00;;;;;;4881470;29;20383;-86
2023/05/22 12:26:48;;;;;;;32.35;17.23;;;18.80;72.90;;;;;;4892111;29;20043;-87
2023/05/22 12:29:13;;;;;;;38.65;17.83;;;18.80;72.30;;;;;;4885138;29;20037;-86
2023/05/22 12:31:39;;;;;;;36.40;17.65;;;18.70;73.10;;;;;;4881360;29;20047;-90